Time;durP1;ratioP1;P1;durP2;ratioP2;P2;SDS_P1;SDS_P2;PMS_P1;PMS_P2;Temp;Humidity;BMP_temperature;BMP_pressure;BME280_temperature;BME280_humidity;BME280_pressure;Samples;Min_cycle;Max_cycle;Signal;HPM_P1;HPM_P2
2022/03/10 00:01:10;;;;;;;13.02;7.95;;;4.00;98.90;;;;;;5035152;28;20132;-71
2022/03/10 00:03:36;;;;;;;12.13;7.78;;;4.70;99.20;;;;;;5016664;28;20140;-71
2022/03/10 00:06:02;;;;;;;10.50;7.40;;;4.00;98.80;;;;;;5035388;28;20052;-72
2022/03/10 00:08:27;;;;;;;11.35;7.55;;;4.00;98.70;;;;;;5017931;28;20543;-72
2022/03/10 00:10:53;;;;;;;11.95;8.25;;;4.00;98.90;;;;;;5033843;28;20057;-72
2022/03/10 00:13:19;;;;;;;12.68;7.85;;;3.90;98.80;;;;;;5033507;28;20046;-72
2022/03/10 00:15:44;;;;;;;10.55;7.70;;;3.90;98.80;;;;;;5034759;28;20049;-72
2022/03/10 00:18:10;;;;;;;12.32;8.02;;;3.90;98.70;;;;;;5033754;28;20055;-72
2022/03/10 00:20:36;;;;;;;12.18;8.00;;;3.90;98.80;;;;;;5035678;28;20140;-72
2022/03/10 00:23:02;;;;;;;11.40;7.97;;;3.90;98.90;;;;;;5035344;28;20057;-72
2022/03/10 00:25:28;;;;;;;12.25;7.97;;;3.80;98.80;;;;;;5034791;28;20049;-72
2022/03/10 00:27:53;;;;;;;13.27;8.00;;;4.20;99.10;;;;;;5033558;28;20080;-72
2022/03/10 00:30:20;;;;;;;13.52;8.25;;;4.60;99.30;;;;;;5034699;28;20072;-72
2022/03/10 00:32:48;;;;;;;11.93;8.35;;;3.70;99.20;;;;;;5033452;28;20041;-72
2022/03/10 00:35:19;;;;;;;10.75;7.82;;;4.20;99.60;;;;;;5033846;28;20119;-72
2022/03/10 00:37:46;;;;;;;13.18;7.97;;;3.80;99.40;;;;;;5035363;28;20052;-72
2022/03/10 00:40:12;;;;;;;14.23;8.27;;;3.80;99.50;;;;;;5034440;28;20109;-72
2022/03/10 00:42:39;;;;;;;11.95;8.23;;;3.70;99.60;;;;;;5035176;28;20073;-71
2022/03/10 00:45:06;;;;;;;13.60;8.65;;;4.20;99.90;;;;;;5034364;28;20472;-72
2022/03/10 00:47:32;;;;;;;11.38;8.05;;;3.70;99.80;;;;;;5033483;28;20053;-72
2022/03/10 00:49:58;;;;;;;13.15;8.88;;;3.70;99.80;;;;;;5034419;28;20089;-72
2022/03/10 00:52:24;;;;;;;11.80;8.82;;;3.50;99.90;;;;;;5034285;28;20505;-72
2022/03/10 00:54:50;;;;;;;12.77;8.05;;;3.50;99.90;;;;;;5033974;28;20088;-72
2022/03/10 00:57:15;;;;;;;13.75;8.98;;;3.50;99.90;;;;;;5034724;28;20048;-72
2022/03/10 00:59:41;;;;;;;13.65;8.75;;;3.40;99.90;;;;;;5034110;28;20085;-72
2022/03/10 01:02:07;;;;;;;11.55;9.00;;;3.50;99.90;;;;;;5034356;28;20049;-72
2022/03/10 01:04:33;;;;;;;13.93;9.38;;;4.10;99.90;;;;;;5033646;28;20175;-72
2022/03/10 01:06:58;;;;;;;13.73;8.70;;;3.60;99.90;;;;;;5032838;28;20046;-72
2022/03/10 01:09:24;;;;;;;13.02;9.00;;;3.80;99.90;;;;;;5033700;28;20104;-72
2022/03/10 01:11:50;;;;;;;12.40;8.68;;;3.80;99.90;;;;;;5033931;28;20037;-72
2022/03/10 01:14:15;;;;;;;11.95;8.57;;;3.20;99.90;;;;;;5034039;28;20171;-72
2022/03/10 01:16:41;;;;;;;13.07;9.30;;;3.50;99.90;;;;;;5032702;28;20049;-71
2022/03/10 01:19:08;;;;;;;13.40;9.70;;;3.20;99.90;;;;;;5033587;28;20057;-72
2022/03/10 01:21:34;;;;;;;14.02;9.35;;;3.10;99.90;;;;;;5016798;28;20452;-72
2022/03/10 01:24:00;;;;;;;12.95;8.98;;;3.30;99.90;;;;;;5032643;28;20092;-72
2022/03/10 01:26:26;;;;;;;12.27;9.18;;;3.40;99.90;;;;;;5032704;28;20081;-72
2022/03/10 01:28:51;;;;;;;13.63;9.65;;;3.20;99.90;;;;;;5032613;28;20053;-72
2022/03/10 01:31:17;;;;;;;14.15;9.10;;;4.20;99.90;;;;;;5032551;28;20046;-72
2022/03/10 01:33:43;;;;;;;13.30;9.15;;;3.10;99.90;;;;;;5033054;28;20053;-72
2022/03/10 01:36:09;;;;;;;13.35;9.23;;;3.00;99.90;;;;;;5034488;28;20428;-72
2022/03/10 01:38:39;;;;;;;10.73;8.75;;;4.20;99.90;;;;;;5033645;28;20553;-72
2022/03/10 01:41:06;;;;;;;12.52;9.38;;;3.00;99.90;;;;;;5032991;28;20099;-72
2022/03/10 01:43:32;;;;;;;12.30;8.95;;;3.10;99.90;;;;;;5032404;28;20057;-72
2022/03/10 01:45:59;;;;;;;13.40;9.40;;;3.00;99.90;;;;;;5033076;28;20049;-72
2022/03/10 01:48:24;;;;;;;13.10;9.30;;;3.10;99.90;;;;;;5033520;28;20050;-72
2022/03/10 01:50:51;;;;;;;13.23;8.65;;;3.00;99.90;;;;;;5033573;28;20045;-72
2022/03/10 01:53:17;;;;;;;12.75;8.60;;;3.60;99.90;;;;;;5033353;28;20084;-72
2022/03/10 01:55:44;;;;;;;11.77;8.25;;;3.00;99.90;;;;;;5032280;28;20045;-72
2022/03/10 01:58:10;;;;;;;14.52;8.50;;;4.00;99.90;;;;;;5032506;28;20092;-72
2022/03/10 02:00:36;;;;;;;13.00;8.40;;;3.10;99.90;;;;;;5033451;28;20076;-72
2022/03/10 02:03:02;;;;;;;15.60;8.88;;;3.20;99.90;;;;;;5033392;28;20049;-73
2022/03/10 02:05:31;;;;;;;12.52;9.00;;;2.70;99.90;;;;;;5033919;28;20529;-72
2022/03/10 02:10:42;;;;;;;13.27;9.13;;;2.90;99.90;;;;;;5033371;28;20471;-72
2022/03/10 02:13:07;;;;;;;13.38;9.10;;;2.80;99.90;;;;;;5033612;28;20041;-73
2022/03/10 02:18:21;;;;;;;13.60;8.85;;;2.90;99.90;;;;;;5032261;28;20085;-72
2022/03/10 02:20:47;;;;;;;14.07;8.90;;;4.00;99.90;;;;;;5033205;28;20038;-72
2022/03/10 02:23:13;;;;;;;11.10;8.13;;;3.00;99.90;;;;;;5033144;28;20057;-72
2022/03/10 02:25:41;;;;;;;12.85;8.50;;;3.30;99.90;;;;;;5016172;28;20049;-72
2022/03/10 02:28:07;;;;;;;14.32;9.20;;;3.00;99.90;;;;;;5036143;28;20045;-72
2022/03/10 02:30:34;;;;;;;13.07;8.48;;;2.80;99.90;;;;;;5036967;28;20046;-72
2022/03/10 02:33:00;;;;;;;11.52;8.05;;;3.10;99.90;;;;;;5035755;28;20045;-72
2022/03/10 02:35:27;;;;;;;11.90;8.43;;;2.80;99.90;;;;;;5036896;28;20042;-72
2022/03/10 02:37:53;;;;;;;11.13;7.38;;;3.10;99.90;;;;;;5036649;28;20056;-72
2022/03/10 02:40:19;;;;;;;14.32;8.68;;;3.40;99.90;;;;;;5036765;28;20056;-72
2022/03/10 02:42:45;;;;;;;12.60;8.57;;;3.00;99.90;;;;;;5037225;28;20041;-72
2022/03/10 02:45:11;;;;;;;13.00;8.73;;;3.30;99.90;;;;;;5035465;28;20075;-72
2022/03/10 02:47:37;;;;;;;12.20;8.77;;;2.90;99.90;;;;;;5035403;28;20069;-72
2022/03/10 02:50:06;;;;;;;14.18;8.98;;;3.70;99.90;;;;;;5037221;28;20057;-72
2022/03/10 02:52:34;;;;;;;13.57;7.90;;;3.00;99.90;;;;;;5035586;28;20045;-72
2022/03/10 02:55:00;;;;;;;13.30;7.97;;;3.00;99.90;;;;;;5036480;28;20497;-72
2022/03/10 02:57:28;;;;;;;12.75;8.23;;;3.20;99.90;;;;;;5035352;28;20049;-72
2022/03/10 02:59:53;;;;;;;13.60;8.82;;;3.20;99.90;;;;;;5036472;28;20053;-72
2022/03/10 03:02:19;;;;;;;13.23;8.57;;;3.10;99.90;;;;;;5036261;28;20095;-72
2022/03/10 03:04:45;;;;;;;13.02;8.60;;;3.00;99.90;;;;;;5036045;28;20056;-72
2022/03/10 03:07:10;;;;;;;11.43;7.53;;;3.00;99.90;;;;;;5035597;28;20048;-72
2022/03/10 03:09:36;;;;;;;13.30;7.97;;;3.00;99.90;;;;;;5036275;28;20430;-72
2022/03/10 03:12:02;;;;;;;13.50;8.45;;;2.70;99.90;;;;;;5035045;28;20048;-72
2022/03/10 03:14:28;;;;;;;10.48;7.82;;;2.80;99.90;;;;;;5034861;28;20084;-73
2022/03/10 03:16:56;;;;;;;10.80;7.97;;;2.70;99.90;;;;;;5034998;28;20045;-72
2022/03/10 03:19:22;;;;;;;12.73;8.77;;;2.50;99.90;;;;;;5035319;28;20047;-73
2022/03/10 03:21:48;;;;;;;12.98;8.52;;;2.70;99.90;;;;;;5035277;28;20052;-72
2022/03/10 03:24:14;;;;;;;13.98;8.18;;;2.60;99.90;;;;;;5034919;28;20516;-73
2022/03/10 03:26:40;;;;;;;13.35;8.70;;;2.50;99.90;;;;;;5034960;28;20143;-72
2022/03/10 03:29:06;;;;;;;13.80;8.82;;;2.20;99.90;;;;;;5034757;28;20389;-73
2022/03/10 03:31:31;;;;;;;9.95;7.43;;;2.70;99.90;;;;;;5035865;28;20042;-72
2022/03/10 03:33:57;;;;;;;11.80;8.25;;;2.40;99.90;;;;;;5035831;28;20038;-72
2022/03/10 03:36:23;;;;;;;14.43;8.80;;;2.50;99.90;;;;;;5035823;28;20052;-72
2022/03/10 03:38:48;;;;;;;12.82;8.43;;;2.30;99.90;;;;;;5035528;28;20041;-72
2022/03/10 03:41:14;;;;;;;12.68;8.55;;;3.60;99.90;;;;;;5035607;28;20068;-72
2022/03/10 03:43:40;;;;;;;13.60;9.00;;;2.00;99.90;;;;;;5035666;28;20048;-72
2022/03/10 03:46:05;;;;;;;15.15;8.98;;;2.80;99.90;;;;;;5035501;28;20085;-72
2022/03/10 03:48:31;;;;;;;12.38;8.45;;;2.20;99.90;;;;;;5034976;28;20056;-73
2022/03/10 03:50:57;;;;;;;13.73;8.80;;;2.80;99.90;;;;;;5034092;28;20049;-72
2022/03/10 03:53:22;;;;;;;12.25;8.75;;;2.90;99.90;;;;;;5034309;28;20045;-72
2022/03/10 03:55:48;;;;;;;16.38;9.43;;;2.40;99.90;;;;;;5035499;28;20099;-72
2022/03/10 03:58:14;;;;;;;13.68;8.57;;;2.30;99.90;;;;;;5035412;28;20482;-72
2022/03/10 04:00:39;;;;;;;11.88;8.48;;;3.20;99.90;;;;;;5035330;28;20045;-72
2022/03/10 04:03:10;;;;;;;12.27;9.13;;;2.20;99.90;;;;;;5017513;28;20168;-72
2022/03/10 04:05:36;;;;;;;13.98;8.60;;;2.20;99.90;;;;;;5035149;28;20048;-72
2022/03/10 04:08:02;;;;;;;12.95;8.02;;;2.40;99.90;;;;;;5034288;28;20137;-72
2022/03/10 04:10:28;;;;;;;12.75;8.73;;;2.20;99.90;;;;;;5035948;28;20577;-73
2022/03/10 04:12:54;;;;;;;14.70;9.38;;;2.20;99.90;;;;;;5033893;28;20512;-72
2022/03/10 04:15:20;;;;;;;12.88;8.35;;;2.00;99.90;;;;;;5034964;28;20048;-72
2022/03/10 04:17:45;;;;;;;11.57;8.27;;;2.30;99.90;;;;;;5035040;28;20054;-72
2022/03/10 04:20:13;;;;;;;13.65;9.10;;;2.30;99.90;;;;;;5034931;28;20046;-72
2022/03/10 04:22:42;;;;;;;13.00;8.68;;;2.80;99.90;;;;;;5034762;28;20394;-72
2022/03/10 04:25:09;;;;;;;12.73;8.70;;;2.30;99.90;;;;;;5017197;28;20049;-72
2022/03/10 04:27:35;;;;;;;13.18;8.80;;;2.30;99.90;;;;;;5034772;28;20061;-73
2022/03/10 04:30:02;;;;;;;14.02;9.43;;;2.50;99.90;;;;;;5033627;28;20050;-72
2022/03/10 04:32:28;;;;;;;11.88;8.70;;;3.40;99.90;;;;;;5033540;28;20045;-73
2022/03/10 04:34:54;;;;;;;14.57;9.20;;;2.30;99.90;;;;;;5001698;28;20543;-72
2022/03/10 04:37:20;;;;;;;12.48;8.85;;;2.30;99.90;;;;;;5033430;28;20045;-72
2022/03/10 04:39:45;;;;;;;17.27;8.63;;;2.70;99.90;;;;;;5035378;28;20041;-72
2022/03/10 04:42:11;;;;;;;11.55;8.25;;;2.50;99.90;;;;;;5033221;28;20386;-72
2022/03/10 04:44:37;;;;;;;11.80;8.77;;;2.60;99.90;;;;;;5034382;28;20133;-72
2022/03/10 04:47:03;;;;;;;12.80;8.77;;;3.00;99.90;;;;;;5033271;28;20055;-72
2022/03/10 04:49:29;;;;;;;11.40;7.68;;;2.30;99.90;;;;;;5033796;28;20448;-72
2022/03/10 04:51:54;;;;;;;13.10;8.52;;;2.30;99.90;;;;;;5033118;28;20041;-72
2022/03/10 04:54:20;;;;;;;14.27;9.05;;;3.20;99.90;;;;;;5034278;28;20049;-73
2022/03/10 04:56:47;;;;;;;13.35;8.70;;;2.80;99.90;;;;;;5034804;28;20430;-72
2022/03/10 04:59:13;;;;;;;13.35;8.93;;;2.60;99.90;;;;;;5034227;28;20045;-72
2022/03/10 05:01:39;;;;;;;14.15;9.30;;;2.20;99.90;;;;;;5034101;28;20517;-72
2022/03/10 05:04:04;;;;;;;14.65;8.55;;;2.50;99.90;;;;;;5034947;28;20060;-72
2022/03/10 05:06:30;;;;;;;12.05;8.73;;;3.40;99.90;;;;;;5032940;28;20049;-72
2022/03/10 05:08:56;;;;;;;13.23;9.15;;;3.60;99.90;;;;;;5033656;28;20049;-72
2022/03/10 05:11:21;;;;;;;13.07;8.20;;;2.60;99.90;;;;;;5033081;28;20466;-72
2022/03/10 05:13:47;;;;;;;14.23;8.27;;;2.40;99.90;;;;;;5033676;28;20074;-72
2022/03/10 05:16:13;;;;;;;12.98;8.75;;;2.40;99.90;;;;;;5034460;28;20115;-72
2022/03/10 05:18:38;;;;;;;11.35;7.95;;;2.80;99.90;;;;;;5032669;28;20041;-72
2022/03/10 05:21:04;;;;;;;14.05;8.68;;;3.10;99.90;;;;;;5033921;28;20443;-72
2022/03/10 05:23:30;;;;;;;12.48;8.43;;;3.90;99.90;;;;;;5032005;28;20057;-72
2022/03/10 05:25:55;;;;;;;13.50;8.32;;;2.50;99.90;;;;;;5034641;28;20060;-72
2022/03/10 05:28:21;;;;;;;15.15;8.20;;;2.50;99.90;;;;;;5033801;28;20092;-73
2022/03/10 05:30:48;;;;;;;14.48;8.60;;;2.40;99.90;;;;;;5032477;28;20094;-73
2022/03/10 05:33:14;;;;;;;12.23;7.85;;;2.50;99.90;;;;;;5032708;28;20061;-72
2022/03/10 05:35:40;;;;;;;11.75;8.25;;;2.50;99.90;;;;;;5017069;28;20103;-72
2022/03/10 05:38:06;;;;;;;13.23;8.73;;;3.00;99.90;;;;;;5034190;28;20378;-72
2022/03/10 05:40:31;;;;;;;12.77;8.30;;;2.40;99.90;;;;;;5033611;28;20128;-73
2022/03/10 05:42:57;;;;;;;14.32;8.50;;;2.70;99.90;;;;;;5033499;28;20052;-72
2022/03/10 05:45:24;;;;;;;13.48;8.52;;;2.40;99.90;;;;;;5032189;28;20041;-72
2022/03/10 05:47:51;;;;;;;10.77;7.82;;;2.30;99.90;;;;;;5032575;28;20053;-72
2022/03/10 05:50:18;;;;;;;12.02;8.15;;;2.70;99.90;;;;;;5032345;28;20132;-72
2022/03/10 05:52:45;;;;;;;14.13;8.05;;;3.40;99.90;;;;;;5015778;28;20072;-72
2022/03/10 05:55:12;;;;;;;12.20;8.50;;;3.60;99.90;;;;;;5033757;28;20433;-72
2022/03/10 05:57:39;;;;;;;11.10;8.35;;;2.80;99.90;;;;;;5033446;28;20054;-72
2022/03/10 06:00:05;;;;;;;14.80;8.77;;;2.40;99.90;;;;;;5016051;28;20428;-72
2022/03/10 06:02:31;;;;;;;14.80;8.85;;;2.50;99.90;;;;;;5037198;28;20037;-72
2022/03/10 06:05:00;;;;;;;15.55;9.82;;;2.40;99.90;;;;;;5020068;28;20061;-72
2022/03/10 06:07:27;;;;;;;11.98;8.30;;;2.60;99.90;;;;;;5003530;28;20480;-72
2022/03/10 06:09:54;;;;;;;12.88;8.65;;;3.70;99.90;;;;;;5037407;28;20517;-72
2022/03/10 06:12:21;;;;;;;12.23;8.00;;;2.50;99.90;;;;;;5037325;28;20052;-73
2022/03/10 06:14:46;;;;;;;13.20;8.10;;;2.60;99.90;;;;;;5036030;28;20046;-72
2022/03/10 06:17:12;;;;;;;11.60;8.52;;;2.40;99.90;;;;;;5038055;28;20048;-72
2022/03/10 06:19:38;;;;;;;14.63;8.40;;;2.40;99.90;;;;;;5020177;28;20458;-72
2022/03/10 06:22:04;;;;;;;14.18;8.80;;;2.40;99.90;;;;;;5035864;28;20037;-72
2022/03/10 06:24:29;;;;;;;13.57;8.77;;;2.90;99.90;;;;;;5036637;28;20065;-72
2022/03/10 06:26:55;;;;;;;14.85;8.90;;;2.40;99.90;;;;;;5037052;28;20555;-72
2022/03/10 06:29:21;;;;;;;16.20;9.02;;;2.70;99.90;;;;;;5019654;28;20049;-72
2022/03/10 06:31:47;;;;;;;13.35;8.90;;;2.50;99.90;;;;;;5036337;28;20465;-72
2022/03/10 06:34:13;;;;;;;15.50;9.73;;;2.20;99.90;;;;;;5036973;28;20049;-72
2022/03/10 06:36:39;;;;;;;15.70;9.70;;;2.60;99.90;;;;;;5037233;28;20537;-72
2022/03/10 06:39:06;;;;;;;13.82;9.50;;;2.30;99.90;;;;;;5037711;28;20081;-72
2022/03/10 06:41:32;;;;;;;13.65;8.98;;;2.60;99.90;;;;;;5037325;28;20049;-72
2022/03/10 06:43:57;;;;;;;13.93;9.25;;;2.40;99.90;;;;;;5036742;28;20127;-72
2022/03/10 06:46:24;;;;;;;15.05;9.90;;;3.10;99.90;;;;;;5036698;28;20467;-72
2022/03/10 06:48:49;;;;;;;15.45;9.48;;;2.60;99.90;;;;;;5035678;28;20053;-72
2022/03/10 06:51:15;;;;;;;12.80;9.35;;;2.60;99.90;;;;;;5036651;28;20103;-72
2022/03/10 06:53:41;;;;;;;13.52;9.38;;;3.30;99.90;;;;;;5035965;28;20132;-72
2022/03/10 06:56:07;;;;;;;12.82;9.15;;;2.60;99.90;;;;;;5036634;28;20038;-72
2022/03/10 06:58:33;;;;;;;14.35;9.63;;;2.80;99.90;;;;;;5036925;28;20502;-72
2022/03/10 07:00:59;;;;;;;15.30;9.40;;;3.10;99.90;;;;;;5036484;28;20389;-72
2022/03/10 07:03:24;;;;;;;15.73;9.05;;;2.90;99.90;;;;;;5035247;28;20045;-73
2022/03/10 07:05:50;;;;;;;13.93;9.18;;;2.90;99.90;;;;;;5036530;28;20056;-73
2022/03/10 07:08:15;;;;;;;14.38;9.07;;;3.00;99.90;;;;;;5036495;28;20548;-73
2022/03/10 07:10:41;;;;;;;15.10;9.93;;;2.80;99.90;;;;;;5018933;28;20080;-72
2022/03/10 07:13:10;;;;;;;14.43;9.23;;;3.30;99.90;;;;;;5034865;28;20131;-72
2022/03/10 07:15:36;;;;;;;12.50;8.48;;;3.30;99.90;;;;;;5035627;28;20041;-73
2022/03/10 07:18:01;;;;;;;14.52;8.35;;;3.10;99.90;;;;;;5036316;28;20136;-71
2022/03/10 07:20:27;;;;;;;15.00;9.60;;;3.20;99.90;;;;;;5035986;28;20512;-72
2022/03/10 07:22:53;;;;;;;12.80;8.45;;;3.20;99.90;;;;;;5035442;28;20061;-72
2022/03/10 07:25:20;;;;;;;14.50;8.85;;;3.30;99.90;;;;;;5036709;28;20367;-72
2022/03/10 07:27:46;;;;;;;15.65;9.18;;;3.90;99.90;;;;;;5036168;28;20056;-73
2022/03/10 07:30:12;;;;;;;15.50;9.30;;;3.60;99.90;;;;;;5035651;28;20054;-72
2022/03/10 07:32:38;;;;;;;12.88;9.18;;;3.50;99.90;;;;;;5036583;28;20085;-72
2022/03/10 07:35:04;;;;;;;14.38;8.57;;;3.50;99.90;;;;;;5018817;28;20056;-72
2022/03/10 07:37:30;;;;;;;13.77;8.52;;;3.60;99.90;;;;;;5035919;28;20059;-72
2022/03/10 07:39:55;;;;;;;13.77;8.73;;;3.70;99.90;;;;;;5035336;28;20045;-72
2022/03/10 07:42:21;;;;;;;12.77;8.98;;;3.60;99.90;;;;;;5035752;28;20112;-72
2022/03/10 07:44:47;;;;;;;13.60;8.68;;;4.30;99.90;;;;;;5017860;28;20041;-73
2022/03/10 07:47:12;;;;;;;13.40;8.38;;;3.80;99.90;;;;;;5035722;28;20053;-72
2022/03/10 07:49:38;;;;;;;14.68;8.95;;;5.40;99.90;;;;;;5035289;28;20045;-72
2022/03/10 07:52:06;;;;;;;15.02;8.30;;;3.80;99.90;;;;;;5035629;28;20397;-73
2022/03/10 07:54:33;;;;;;;15.30;8.82;;;4.00;99.90;;;;;;5035601;28;20128;-72
2022/03/10 07:56:59;;;;;;;14.30;9.25;;;4.00;99.90;;;;;;5035291;28;20490;-73
2022/03/10 07:59:24;;;;;;;13.68;8.63;;;4.10;99.90;;;;;;5018065;28;20041;-73
2022/03/10 08:01:50;;;;;;;12.60;8.15;;;3.90;99.90;;;;;;5036181;28;20493;-73
2022/03/10 08:04:16;;;;;;;13.85;8.52;;;4.00;99.90;;;;;;5036130;28;20057;-73
2022/03/10 08:06:42;;;;;;;17.02;8.93;;;4.00;99.90;;;;;;5035297;28;20045;-73
2022/03/10 08:09:10;;;;;;;13.18;8.88;;;4.30;99.90;;;;;;5035363;28;20123;-73
2022/03/10 08:11:38;;;;;;;15.00;8.88;;;4.60;99.90;;;;;;5035215;28;20049;-72
2022/03/10 08:14:04;;;;;;;13.60;8.27;;;4.50;99.90;;;;;;5033970;28;20057;-72
2022/03/10 08:16:31;;;;;;;15.20;9.02;;;4.60;99.90;;;;;;5035209;28;20049;-71
2022/03/10 08:18:56;;;;;;;13.85;8.52;;;4.70;99.90;;;;;;5035082;28;20049;-72
2022/03/10 08:21:22;;;;;;;12.80;8.00;;;4.60;99.90;;;;;;5034991;28;20056;-71
2022/03/10 08:23:48;;;;;;;13.90;8.93;;;4.70;99.70;;;;;;5033213;28;20061;-71
2022/03/10 08:26:13;;;;;;;13.82;8.88;;;4.70;99.50;;;;;;5033532;28;20049;-72
2022/03/10 08:28:39;;;;;;;11.43;8.65;;;5.00;99.50;;;;;;5035240;28;20393;-73
2022/03/10 08:31:05;;;;;;;13.73;9.38;;;5.00;99.20;;;;;;5033761;28;20045;-72
2022/03/10 08:33:31;;;;;;;11.88;8.05;;;4.80;99.00;;;;;;5034917;28;20053;-72
2022/03/10 08:35:57;;;;;;;14.75;8.95;;;4.90;98.80;;;;;;5033259;28;20138;-71
2022/03/10 08:38:23;;;;;;;13.63;9.13;;;5.60;98.80;;;;;;5033662;28;20258;-71
2022/03/10 08:40:49;;;;;;;11.68;7.63;;;5.10;98.50;;;;;;5015953;28;20049;-71
2022/03/10 08:43:15;;;;;;;11.48;8.98;;;5.10;98.30;;;;;;5032599;28;20076;-71
2022/03/10 08:45:41;;;;;;;14.05;8.45;;;5.20;98.10;;;;;;5033813;28;20103;-71
2022/03/10 08:48:08;;;;;;;12.30;8.10;;;5.30;97.90;;;;;;5034125;28;20060;-71
2022/03/10 08:50:34;;;;;;;15.00;8.00;;;5.40;97.70;;;;;;5033815;28;20132;-71
2022/03/10 08:53:00;;;;;;;12.80;7.97;;;5.40;97.40;;;;;;5033464;28;20060;-71
2022/03/10 08:55:27;;;;;;;13.73;8.52;;;5.50;97.10;;;;;;5032314;28;20056;-71
2022/03/10 08:57:53;;;;;;;13.45;8.32;;;5.60;96.90;;;;;;5032428;28;20057;-70
2022/03/10 09:00:19;;;;;;;12.55;7.90;;;5.80;96.70;;;;;;5016310;28;20049;-70
2022/03/10 09:02:45;;;;;;;14.52;8.65;;;5.80;96.40;;;;;;5033344;28;20374;-71
2022/03/10 09:05:11;;;;;;;12.27;8.10;;;5.80;96.20;;;;;;5034151;28;20052;-71
2022/03/10 09:07:37;;;;;;;14.20;8.43;;;5.90;95.60;;;;;;5032214;28;20068;-71
2022/03/10 09:10:04;;;;;;;12.32;8.57;;;6.20;95.60;;;;;;5033330;28;20095;-71
2022/03/10 09:12:30;;;;;;;11.13;7.00;;;6.10;95.50;;;;;;5032362;28;20056;-71
2022/03/10 09:14:56;;;;;;;13.45;8.07;;;6.20;94.90;;;;;;5032921;28;20052;-71
2022/03/10 09:17:22;;;;;;;11.52;8.15;;;6.20;94.70;;;;;;5015952;28;20045;-71
2022/03/10 09:19:49;;;;;;;13.30;8.43;;;6.30;94.60;;;;;;5033296;28;20060;-72
2022/03/10 09:22:15;;;;;;;12.35;8.82;;;6.40;94.70;;;;;;5033344;28;20343;-78
2022/03/10 09:24:42;;;;;;;13.98;8.75;;;6.40;94.70;;;;;;5015754;28;20451;-77
2022/03/10 09:27:09;;;;;;;10.88;8.00;;;6.50;94.60;;;;;;5015505;28;20052;-76
2022/03/10 09:29:35;;;;;;;11.75;8.15;;;6.60;94.30;;;;;;5016139;28;20053;-81
2022/03/10 09:32:01;;;;;;;15.77;8.25;;;6.60;94.00;;;;;;4999376;28;20092;-71
2022/03/10 09:34:27;;;;;;;12.10;8.00;;;6.40;93.90;;;;;;5031832;28;20081;-72
2022/03/10 09:36:53;;;;;;;12.38;8.30;;;6.70;93.80;;;;;;5015866;28;20052;-70
2022/03/10 09:39:19;;;;;;;12.27;8.25;;;6.70;93.50;;;;;;5033220;28;20117;-68
2022/03/10 09:41:45;;;;;;;12.48;8.10;;;6.90;93.30;;;;;;5033306;28;20044;-75
2022/03/10 09:44:19;;;;;;;13.20;8.23;;;7.00;93.10;;;;;;5032978;28;20045;-73
2022/03/10 09:46:50;;;;;;;13.30;8.50;;;7.10;92.90;;;;;;5031572;28;20061;-75
2022/03/10 09:49:20;;;;;;;13.75;8.57;;;7.10;92.40;;;;;;5016191;28;20041;-75
2022/03/10 09:51:50;;;;;;;12.07;8.23;;;7.70;92.40;;;;;;5015938;28;20057;-76
2022/03/10 09:54:16;;;;;;;11.35;8.10;;;7.30;92.00;;;;;;5015893;28;20115;-72
2022/03/10 09:56:43;;;;;;;13.93;9.25;;;7.70;91.80;;;;;;5035552;28;20050;-77
2022/03/10 09:59:12;;;;;;;11.18;8.25;;;7.50;91.70;;;;;;5033419;28;20041;-75
2022/03/10 10:01:38;;;;;;;10.10;7.43;;;7.50;91.50;;;;;;5032655;28;20096;-73
2022/03/10 10:04:04;;;;;;;10.80;7.55;;;7.60;91.20;;;;;;5036924;28;20045;-70
2022/03/10 10:06:30;;;;;;;12.20;7.70;;;7.70;90.90;;;;;;5017656;28;20053;-72
2022/03/10 10:08:57;;;;;;;11.43;7.35;;;7.80;90.70;;;;;;5031974;28;20482;-78
2022/03/10 10:11:34;;;;;;;11.88;8.02;;;7.70;90.20;;;;;;5032913;28;20556;-76
2022/03/10 10:14:00;;;;;;;10.07;7.03;;;8.00;90.00;;;;;;5032251;28;20085;-70
2022/03/10 10:16:26;;;;;;;10.20;7.43;;;8.10;89.30;;;;;;5032753;28;20401;-70
2022/03/10 10:18:56;;;;;;;12.07;8.20;;;8.20;88.10;;;;;;5033366;28;20374;-68
2022/03/10 10:21:23;;;;;;;12.00;6.68;;;8.30;88.00;;;;;;5031839;28;20049;-71
2022/03/10 10:23:51;;;;;;;9.95;7.63;;;8.40;87.20;;;;;;5032384;28;20059;-74
2022/03/10 10:26:18;;;;;;;11.35;7.47;;;8.50;86.80;;;;;;5033015;28;20107;-74
2022/03/10 10:28:47;;;;;;;10.70;7.57;;;8.50;86.20;;;;;;5031418;28;20064;-77
2022/03/10 10:31:16;;;;;;;9.43;7.68;;;8.60;85.30;;;;;;5015017;28;20140;-73
2022/03/10 10:33:55;;;;;;;11.10;7.70;;;8.70;85.00;;;;;;5031187;28;20053;-76
2022/03/10 10:36:24;;;;;;;12.25;7.68;;;8.90;84.20;;;;;;5032550;28;20513;-74
2022/03/10 10:39:11;;;;;;;10.07;7.35;;;8.90;83.50;;;;;;5032598;28;20050;-73
2022/03/10 10:41:42;;;;;;;9.98;6.88;;;9.00;82.70;;;;;;5015408;28;20060;-74
2022/03/10 10:44:16;;;;;;;9.25;6.80;;;9.10;82.10;;;;;;5031739;28;20053;-75
2022/03/10 10:46:44;;;;;;;10.05;7.75;;;9.20;81.50;;;;;;5031476;28;20053;-65
2022/03/10 10:49:15;;;;;;;9.07;6.32;;;9.30;80.90;;;;;;5035700;28;20041;-72
2022/03/10 10:51:53;;;;;;;9.90;6.95;;;9.30;80.10;;;;;;5035958;28;20053;-64
2022/03/10 10:54:19;;;;;;;13.25;8.32;;;9.40;79.70;;;;;;5034888;28;20478;-78
2022/03/10 10:56:47;;;;;;;9.32;7.45;;;9.50;79.60;;;;;;5035048;28;20049;-68
2022/03/10 10:59:35;;;;;;;9.98;7.50;;;9.60;79.60;;;;;;5035651;28;20050;-68
2022/03/10 11:02:19;;;;;;;13.82;8.07;;;9.60;79.50;;;;;;5035934;28;20120;-80
2022/03/10 11:04:47;;;;;;;8.85;6.45;;;9.70;78.80;;;;;;5036742;28;20048;-77
2022/03/10 11:07:14;;;;;;;9.88;6.85;;;9.80;76.80;;;;;;5018301;28;20122;-71
2022/03/10 11:09:45;;;;;;;9.50;7.20;;;9.80;76.90;;;;;;5035428;28;20048;-79
2022/03/10 11:12:13;;;;;;;11.02;7.35;;;9.90;76.60;;;;;;5035808;28;20091;-70
2022/03/10 11:14:40;;;;;;;10.15;7.22;;;9.90;76.00;;;;;;5035382;28;20049;-76
2022/03/10 11:17:07;;;;;;;8.68;7.03;;;10.00;74.50;;;;;;5036218;28;20358;-79
2022/03/10 11:19:36;;;;;;;10.02;7.35;;;10.00;74.30;;;;;;5035128;28;20446;-80
2022/03/10 11:22:08;;;;;;;10.77;7.57;;;10.10;74.00;;;;;;5036309;28;20060;-78
2022/03/10 11:24:59;;;;;;;11.17;6.77;;;10.10;72.60;;;;;;5037068;28;20057;-80
2022/03/10 11:27:34;;;;;;;10.85;7.47;;;10.20;72.60;;;;;;5035853;28;20053;-79
2022/03/10 11:30:03;;;;;;;10.85;7.50;;;10.30;72.30;;;;;;5034991;28;20044;-83
2022/03/10 11:32:30;;;;;;;12.23;7.78;;;10.30;72.00;;;;;;5035338;28;20041;-79
2022/03/10 11:35:01;;;;;;;10.43;7.55;;;10.40;69.80;;;;;;5034726;28;20069;-82
2022/03/10 11:37:40;;;;;;;12.70;7.55;;;10.40;68.80;;;;;;5035339;28;20473;-80
2022/03/10 11:40:10;;;;;;;10.85;7.55;;;10.60;68.90;;;;;;5035480;28;20045;-80
2022/03/10 11:42:37;;;;;;;9.85;7.20;;;10.60;69.10;;;;;;5034412;28;20377;-80
2022/03/10 11:45:21;;;;;;;12.23;7.68;;;10.60;68.70;;;;;;5034141;28;20124;-78
2022/03/10 11:47:48;;;;;;;12.07;8.10;;;10.70;68.50;;;;;;5033953;28;20067;-75
2022/03/10 11:50:23;;;;;;;15.57;8.50;;;10.70;68.20;;;;;;5035854;28;20041;-76
2022/03/10 11:53:02;;;;;;;12.02;8.15;;;10.80;68.40;;;;;;5035792;28;20056;-79
2022/03/10 11:55:43;;;;;;;10.60;7.57;;;10.80;67.80;;;;;;5035602;28;20494;-77
2022/03/10 11:58:13;;;;;;;10.80;7.75;;;10.90;67.80;;;;;;5034138;28;20478;-76
2022/03/10 12:00:44;;;;;;;12.07;8.10;;;11.00;68.00;;;;;;5033620;28;20049;-76
2022/03/10 12:03:34;;;;;;;11.18;8.30;;;11.00;68.30;;;;;;5033530;28;20120;-77
2022/03/10 12:06:01;;;;;;;11.23;7.72;;;11.00;68.20;;;;;;5034603;28;20485;-75
2022/03/10 12:08:29;;;;;;;11.85;7.22;;;11.10;67.50;;;;;;5034084;28;20104;-73
2022/03/10 12:10:56;;;;;;;11.70;8.05;;;11.20;67.30;;;;;;5034794;28;20478;-76
2022/03/10 12:13:31;;;;;;;12.63;8.10;;;11.20;67.00;;;;;;5033215;28;20057;-75
2022/03/10 12:15:58;;;;;;;12.38;7.93;;;11.30;66.20;;;;;;5034797;28;20050;-76
2022/03/10 12:18:51;;;;;;;12.80;7.82;;;11.30;65.90;;;;;;5034984;28;20060;-73
2022/03/10 12:21:29;;;;;;;12.70;8.45;;;11.40;66.70;;;;;;5030159;28;20065;-79
2022/03/10 12:24:02;;;;;;;12.73;8.45;;;11.50;66.50;;;;;;5033125;28;20477;-78
2022/03/10 12:26:45;;;;;;;13.88;8.43;;;11.50;66.40;;;;;;5033692;28;20060;-80
2022/03/10 12:29:13;;;;;;;12.40;8.57;;;11.50;66.10;;;;;;5034625;28;20488;-78
2022/03/10 12:31:41;;;;;;;13.13;8.48;;;11.60;65.30;;;;;;5034013;28;20079;-80
2022/03/10 12:34:14;;;;;;;12.30;8.50;;;11.70;65.50;;;;;;5034536;28;20049;-76
2022/03/10 12:36:42;;;;;;;13.00;8.43;;;11.80;65.40;;;;;;5016984;28;20529;-76
2022/03/10 12:39:11;;;;;;;12.73;8.68;;;11.80;65.90;;;;;;5034147;28;20045;-78
2022/03/10 12:41:54;;;;;;;12.75;9.38;;;11.80;65.60;;;;;;5032445;28;20107;-80
2022/03/10 12:44:21;;;;;;;11.90;8.23;;;11.90;65.60;;;;;;5034142;28;20041;-74
2022/03/10 12:46:49;;;;;;;14.07;8.73;;;11.90;65.40;;;;;;5033953;28;20374;-79
2022/03/10 12:49:32;;;;;;;12.65;8.57;;;12.00;65.50;;;;;;5034042;28;20454;-78
2022/03/10 12:51:58;;;;;;;14.23;8.80;;;12.10;65.00;;;;;;5033822;28;20420;-78